Time;durP1;ratioP1;P1;durP2;ratioP2;P2;SDS_P1;SDS_P2;PMS_P1;PMS_P2;Temp;Humidity;BMP_temperature;BMP_pressure;BME280_temperature;BME280_humidity;BME280_pressure;Samples;Min_cycle;Max_cycle;Signal;HPM_P1;HPM_P2
2021/11/18 00:00:26;;;;;;;;;;;14.00;97.60;;;;;;2089987;28;797;-59
2021/11/18 00:01:51;;;;;;;;;;;14.00;97.90;;;;;;2083297;28;1548;-60
2021/11/18 00:03:10;;;;;;;;;;;14.00;97.60;;;;;;2087857;28;722;-59
2021/11/18 00:04:29;;;;;;;;;;;14.00;97.90;;;;;;2090354;28;1336;-58
2021/11/18 00:05:48;;;;;;;;;;;14.00;97.90;;;;;;2087984;28;1446;-59
2021/11/18 00:07:07;;;;;;;;;;;14.00;97.60;;;;;;2087955;28;944;-58
2021/11/18 00:08:27;;;;;;;;;;;14.00;97.60;;;;;;2095112;28;1914;-60
2021/11/18 00:09:46;;;;;;;;;;;14.00;97.60;;;;;;2089056;28;1595;-57
2021/11/18 00:11:06;;;;;;;;;;;14.00;97.70;;;;;;2089906;28;791;-60
2021/11/18 00:12:26;;;;;;;;;;;13.90;97.70;;;;;;2090044;28;1045;-58
2021/11/18 00:13:49;;;;;;;;;;;14.00;97.70;;;;;;2087204;28;1104;-60
2021/11/18 00:15:08;;;;;;;;;;;13.90;97.60;;;;;;2078720;28;765;-60
2021/11/18 00:16:27;;;;;;;;;;;13.90;97.90;;;;;;2082279;28;1563;-58
2021/11/18 00:17:47;;;;;;;;;;;13.90;97.90;;;;;;2081423;28;1142;-59
2021/11/18 00:19:06;;;;;;;;;;;14.00;97.70;;;;;;2078819;28;1372;-59
2021/11/18 00:20:26;;;;;;;;;;;13.90;97.60;;;;;;2089626;28;744;-60
2021/11/18 00:21:45;;;;;;;;;;;14.00;97.70;;;;;;2085039;28;777;-60
2021/11/18 00:23:05;;;;;;;;;;;13.90;97.60;;;;;;2079885;28;781;-60
2021/11/18 00:24:24;;;;;;;;;;;13.90;97.70;;;;;;2089133;28;1357;-58
2021/11/18 00:25:43;;;;;;;;;;;14.00;97.70;;;;;;2084834;28;760;-58
2021/11/18 00:27:03;;;;;;;;;;;13.90;97.60;;;;;;2081774;28;704;-58
2021/11/18 00:28:22;;;;;;;;;;;13.90;97.60;;;;;;2081302;28;1953;-59
2021/11/18 00:29:41;;;;;;;;;;;13.90;97.60;;;;;;2081996;28;769;-59
2021/11/18 00:31:01;;;;;;;;;;;13.90;97.60;;;;;;2089578;28;754;-58
2021/11/18 00:32:20;;;;;;;;;;;13.90;97.70;;;;;;2068131;28;739;-60
2021/11/18 00:33:39;;;;;;;;;;;13.90;97.70;;;;;;2075202;28;1574;-58
2021/11/18 00:34:58;;;;;;;;;;;13.90;97.70;;;;;;2088858;28;819;-59
2021/11/18 00:36:18;;;;;;;;;;;13.90;97.70;;;;;;2075639;28;780;-59
2021/11/18 00:37:37;;;;;;;;;;;13.90;97.70;;;;;;2086255;28;956;-60
2021/11/18 00:38:57;;;;;;;;;;;13.90;97.70;;;;;;2076485;28;956;-58
2021/11/18 00:40:20;;;;;;;;;;;13.90;97.60;;;;;;2099472;28;1234;-59
2021/11/18 00:41:42;;;;;;;;;;;13.90;97.60;;;;;;2083255;28;1595;-58
2021/11/18 00:43:01;;;;;;;;;;;13.90;97.90;;;;;;2078516;28;831;-61
2021/11/18 00:44:21;;;;;;;;;;;13.90;97.60;;;;;;2089043;28;1365;-60
2021/11/18 00:45:40;;;;;;;;;;;13.90;97.60;;;;;;2075774;28;723;-58
2021/11/18 00:46:59;;;;;;;;;;;13.90;97.60;;;;;;2079312;28;761;-60
2021/11/18 00:48:18;;;;;;;;;;;13.90;97.60;;;;;;2076882;28;1938;-60
2021/11/18 00:49:37;;;;;;;;;;;13.80;97.50;;;;;;2077238;28;747;-60
2021/11/18 00:51:06;;;;;;;;;;;13.90;97.50;;;;;;2080668;28;963;-59
2021/11/18 00:52:25;;;;;;;;;;;13.80;97.40;;;;;;2080649;28;777;-58
2021/11/18 00:53:48;;;;;;;;;;;13.80;97.40;;;;;;2086149;28;754;-60
2021/11/18 00:55:10;;;;;;;;;;;13.80;97.40;;;;;;2080698;28;741;-59
2021/11/18 00:56:31;;;;;;;;;;;13.80;97.30;;;;;;2084895;28;1567;-60
2021/11/18 00:57:51;;;;;;;;;;;13.80;97.40;;;;;;2083642;28;788;-59
2021/11/18 00:59:12;;;;;;;;;;;13.80;97.40;;;;;;2077713;28;767;-58
2021/11/18 01:00:32;;;;;;;;;;;13.80;97.30;;;;;;2080632;28;812;-59
2021/11/18 01:01:52;;;;;;;;;;;13.80;97.30;;;;;;2082463;28;1666;-60
2021/11/18 01:03:12;;;;;;;;;;;13.80;97.30;;;;;;2075655;28;775;-60
2021/11/18 01:04:31;;;;;;;;;;;13.80;97.30;;;;;;2072766;28;1359;-58
2021/11/18 01:05:51;;;;;;;;;;;13.80;97.30;;;;;;2072596;28;759;-59
2021/11/18 01:07:10;;;;;;;;;;;13.80;97.30;;;;;;2080748;28;928;-57
2021/11/18 01:08:30;;;;;;;;;;;13.80;97.40;;;;;;2071969;28;1914;-58
2021/11/18 01:09:49;;;;;;;;;;;13.80;97.40;;;;;;2088283;28;1555;-60
2021/11/18 01:11:12;;;;;;;;;;;13.80;97.40;;;;;;2080512;28;984;-59
2021/11/18 01:12:32;;;;;;;;;;;13.80;97.70;;;;;;2078124;28;769;-60
2021/11/18 01:13:52;;;;;;;;;;;13.80;97.40;;;;;;2077721;28;1344;-58
2021/11/18 01:15:12;;;;;;;;;;;13.80;97.40;;;;;;2080530;28;1928;-58
2021/11/18 01:16:32;;;;;;;;;;;13.80;97.40;;;;;;2085069;28;925;-58
2021/11/18 01:17:53;;;;;;;;;;;13.80;97.40;;;;;;2067396;28;764;-58
2021/11/18 01:19:12;;;;;;;;;;;13.80;97.30;;;;;;2074670;28;1570;-58
2021/11/18 01:20:32;;;;;;;;;;;13.70;97.40;;;;;;2067039;28;757;-58
2021/11/18 01:21:51;;;;;;;;;;;13.80;97.70;;;;;;2080133;28;754;-59
2021/11/18 01:23:11;;;;;;;;;;;13.70;97.40;;;;;;2077392;28;745;-58
2021/11/18 01:24:31;;;;;;;;;;;13.70;97.40;;;;;;2087442;28;1357;-58
2021/11/18 01:26:10;;;;;;;;;;;13.70;97.30;;;;;;2077059;28;1039;-59
2021/11/18 01:27:30;;;;;;;;;;;13.70;97.40;;;;;;2083508;28;826;-58
2021/11/18 01:29:12;;;;;;;;;;;13.70;97.30;;;;;;2085430;28;1393;-59
2021/11/18 01:30:32;;;;;;;;;;;13.70;97.30;;;;;;2093314;28;741;-58
2021/11/18 01:31:51;;;;;;;;;;;13.70;97.40;;;;;;2080256;28;754;-58
2021/11/18 01:33:12;;;;;;;;;;;13.70;97.40;;;;;;2088775;28;760;-59
2021/11/18 01:34:34;;;;;;;;;;;13.70;97.40;;;;;;2072822;28;1456;-58
2021/11/18 01:35:53;;;;;;;;;;;13.70;97.70;;;;;;2074302;28;760;-58
2021/11/18 01:37:13;;;;;;;;;;;13.70;97.80;;;;;;2072108;28;1649;-58
2021/11/18 01:38:33;;;;;;;;;;;13.70;97.50;;;;;;2073892;28;831;-58
2021/11/18 01:40:12;;;;;;;;;;;13.70;97.40;;;;;;2097744;28;1064;-58
2021/11/18 01:41:33;;;;;;;;;;;13.70;97.40;;;;;;2082456;28;1209;-57
2021/11/18 01:42:54;;;;;;;;;;;13.70;97.50;;;;;;2075654;28;794;-59
2021/11/18 01:44:18;;;;;;;;;;;13.70;97.80;;;;;;2084891;28;1691;-57
2021/11/18 01:45:38;;;;;;;;;;;13.60;97.50;;;;;;2072070;28;932;-59
2021/11/18 01:46:57;;;;;;;;;;;13.60;97.40;;;;;;2078423;28;748;-59
2021/11/18 01:48:17;;;;;;;;;;;13.60;97.50;;;;;;2076080;28;1902;-59
2021/11/18 01:49:38;;;;;;;;;;;13.60;97.50;;;;;;2076811;28;774;-59
2021/11/18 01:50:57;;;;;;;;;;;13.70;97.50;;;;;;2068332;28;855;-59
2021/11/18 01:52:22;;;;;;;;;;;13.60;97.40;;;;;;2081265;28;760;-59
2021/11/18 01:53:44;;;;;;;;;;;13.70;97.80;;;;;;2055680;28;809;-59
2021/11/18 01:55:06;;;;;;;;;;;13.60;97.40;;;;;;2078484;28;768;-59
2021/11/18 01:56:26;;;;;;;;;;;13.60;97.40;;;;;;2070615;28;800;-59
2021/11/18 01:57:46;;;;;;;;;;;13.60;97.50;;;;;;2088243;28;1582;-58
2021/11/18 01:59:36;;;;;;;;;;;13.60;97.50;;;;;;2061780;28;1090;-59
2021/11/18 02:01:14;;;;;;;;;;;13.60;97.50;;;;;;2096697;28;744;-59
2021/11/18 02:02:35;;;;;;;;;;;13.60;97.50;;;;;;2072571;28;763;-58
2021/11/18 02:04:10;;;;;;;;;;;13.60;97.50;;;;;;2087266;28;1430;-58
2021/11/18 02:05:45;;;;;;;;;;;13.60;97.50;;;;;;2088335;28;787;-58
2021/11/18 02:07:06;;;;;;;;;;;13.60;97.50;;;;;;2066607;28;789;-58
2021/11/18 02:08:27;;;;;;;;;;;13.60;97.50;;;;;;2069007;28;1903;-59
2021/11/18 02:10:17;;;;;;;;;;;13.60;97.50;;;;;;2091657;28;1024;-58
2021/11/18 02:11:49;;;;;;;;;;;13.60;97.80;;;;;;2074316;28;1165;-58
2021/11/18 02:13:10;;;;;;;;;;;13.60;97.50;;;;;;2093278;28;756;-58
2021/11/18 02:14:29;;;;;;;;;;;13.60;97.50;;;;;;2084096;28;2019;-59
2021/11/18 02:15:49;;;;;;;;;;;13.60;97.50;;;;;;2071751;28;1008;-59
2021/11/18 02:17:09;;;;;;;;;;;13.60;97.50;;;;;;2076990;28;768;-58
2021/11/18 02:18:30;;;;;;;;;;;13.50;97.50;;;;;;2080820;28;1589;-58
2021/11/18 02:19:59;;;;;;;;;;;13.50;97.50;;;;;;2088493;28;1003;-58
2021/11/18 02:21:19;;;;;;;;;;;13.50;97.50;;;;;;2074160;28;747;-59
2021/11/18 02:22:38;;;;;;;;;;;13.50;97.50;;;;;;2085213;28;791;-58
2021/11/18 02:23:59;;;;;;;;;;;13.50;97.50;;;;;;2075128;28;1441;-58
2021/11/18 02:25:18;;;;;;;;;;;13.60;97.60;;;;;;2086419;28;1726;-59
2021/11/18 02:26:37;;;;;;;;;;;13.50;97.50;;;;;;2066760;28;787;-58
2021/11/18 02:27:57;;;;;;;;;;;13.50;97.50;;;;;;2081773;28;796;-60
2021/11/18 02:29:22;;;;;;;;;;;13.50;97.80;;;;;;2074297;28;789;-58
2021/11/18 02:30:43;;;;;;;;;;;13.50;97.50;;;;;;2069016;28;765;-58
2021/11/18 02:32:04;;;;;;;;;;;13.50;97.50;;;;;;2072145;28;780;-58
2021/11/18 02:33:34;;;;;;;;;;;13.50;97.50;;;;;;2078384;28;810;-58
2021/11/18 02:34:57;;;;;;;;;;;13.50;97.50;;;;;;2069841;28;1701;-58
2021/11/18 02:36:26;;;;;;;;;;;13.50;97.60;;;;;;2080839;28;1417;-59
2021/11/18 02:37:45;;;;;;;;;;;13.50;97.50;;;;;;2087445;28;1528;-58
2021/11/18 02:39:05;;;;;;;;;;;13.50;97.50;;;;;;2077872;28;1561;-59
2021/11/18 02:40:25;;;;;;;;;;;13.50;97.50;;;;;;2075657;28;1350;-58
2021/11/18 02:41:44;;;;;;;;;;;13.50;97.50;;;;;;2087233;28;1189;-58
2021/11/18 02:43:04;;;;;;;;;;;13.50;97.90;;;;;;2075104;28;789;-58
2021/11/18 02:44:23;;;;;;;;;;;13.50;97.90;;;;;;2076776;28;1318;-58
2021/11/18 02:45:44;;;;;;;;;;;13.50;97.90;;;;;;2076398;28;1208;-58
2021/11/18 02:47:06;;;;;;;;;;;13.50;97.50;;;;;;2084839;28;1397;-58
2021/11/18 02:48:26;;;;;;;;;;;13.50;97.60;;;;;;2070514;28;1906;-59
2021/11/18 02:49:46;;;;;;;;;;;13.50;97.50;;;;;;2065939;28;1212;-59
2021/11/18 02:51:12;;;;;;;;;;;13.50;97.50;;;;;;2070264;28;1394;-57
2021/11/18 02:52:31;;;;;;;;;;;13.50;97.60;;;;;;2069424;28;1181;-58
2021/11/18 02:53:51;;;;;;;;;;;13.50;97.50;;;;;;2082956;28;1259;-56
2021/11/18 02:55:14;;;;;;;;;;;13.40;97.50;;;;;;2078185;28;1297;-58
2021/11/18 02:56:33;;;;;;;;;;;13.40;97.80;;;;;;2080273;28;1455;-59
2021/11/18 02:57:53;;;;;;;;;;;13.40;97.50;;;;;;2076301;28;1695;-59
2021/11/18 02:59:12;;;;;;;;;;;13.50;97.50;;;;;;2082073;28;1441;-59
2021/11/18 03:00:39;;;;;;;;;;;13.40;97.50;;;;;;2078256;28;1189;-58
2021/11/18 03:01:59;;;;;;;;;;;13.40;97.40;;;;;;2088090;28;1154;-60
2021/11/18 03:03:19;;;;;;;;;;;13.40;97.50;;;;;;2081483;28;1115;-58
2021/11/18 03:04:38;;;;;;;;;;;13.40;97.50;;;;;;2083580;28;1570;-58
2021/11/18 03:06:00;;;;;;;;;;;13.40;97.50;;;;;;2071597;28;1126;-57
2021/11/18 03:07:20;;;;;;;;;;;13.40;97.50;;;;;;2080746;28;1286;-56
2021/11/18 03:08:40;;;;;;;;;;;13.40;97.40;;;;;;2078672;28;1977;-59
2021/11/18 03:10:00;;;;;;;;;;;13.40;97.40;;;;;;2078138;28;1295;-58
2021/11/18 03:11:19;;;;;;;;;;;13.40;97.50;;;;;;2085207;28;1237;-60
2021/11/18 03:12:40;;;;;;;;;;;13.40;97.50;;;;;;2078671;28;1253;-59
2021/11/18 03:14:00;;;;;;;;;;;13.40;97.50;;;;;;2076988;28;1365;-58
2021/11/18 03:15:32;;;;;;;;;;;13.40;97.50;;;;;;2079772;28;1457;-58
2021/11/18 03:16:51;;;;;;;;;;;13.40;97.50;;;;;;2070437;28;1445;-58
2021/11/18 03:18:15;;;;;;;;;;;13.40;97.50;;;;;;2066194;28;1501;-60
2021/11/18 03:19:39;;;;;;;;;;;13.40;97.50;;;;;;2071279;28;1200;-59
2021/11/18 03:20:59;;;;;;;;;;;13.40;97.80;;;;;;2081236;28;1176;-60
2021/11/18 03:22:18;;;;;;;;;;;13.40;97.50;;;;;;2072094;28;1216;-58
2021/11/18 03:23:37;;;;;;;;;;;13.40;97.50;;;;;;2077551;28;1426;-59
2021/11/18 03:25:02;;;;;;;;;;;13.40;97.50;;;;;;2086586;28;1351;-59
2021/11/18 03:26:22;;;;;;;;;;;13.40;97.40;;;;;;2081766;28;1108;-60
2021/11/18 03:27:42;;;;;;;;;;;13.40;97.50;;;;;;2088650;28;1261;-59
2021/11/18 03:29:01;;;;;;;;;;;13.40;97.40;;;;;;2085992;28;1973;-59
2021/11/18 03:30:32;;;;;;;;;;;13.40;97.40;;;;;;2070594;28;1233;-58
2021/11/18 03:31:53;;;;;;;;;;;13.40;97.40;;;;;;2087072;28;1146;-60
2021/11/18 03:33:20;;;;;;;;;;;13.40;97.40;;;;;;2080270;28;1243;-58
2021/11/18 03:34:40;;;;;;;;;;;13.40;97.30;;;;;;2080080;28;1456;-59
2021/11/18 03:35:59;;;;;;;;;;;13.40;97.40;;;;;;2069119;28;1640;-59
2021/11/18 03:37:18;;;;;;;;;;;13.40;97.40;;;;;;2080233;28;1158;-60
2021/11/18 03:38:38;;;;;;;;;;;13.40;97.40;;;;;;2078713;28;1641;-59
2021/11/18 03:40:16;;;;;;;;;;;13.40;97.30;;;;;;2065277;28;1250;-59
2021/11/18 03:41:36;;;;;;;;;;;13.40;97.30;;;;;;2079776;28;1277;-58
2021/11/18 03:42:55;;;;;;;;;;;13.40;97.30;;;;;;2072661;28;1141;-58
2021/11/18 03:44:16;;;;;;;;;;;13.40;97.30;;;;;;2067384;28;1475;-60
2021/11/18 03:45:37;;;;;;;;;;;13.40;97.60;;;;;;2077515;28;1241;-60
2021/11/18 03:46:58;;;;;;;;;;;13.40;97.30;;;;;;2074322;28;1297;-59
2021/11/18 03:48:19;;;;;;;;;;;13.40;97.30;;;;;;2082457;28;1897;-59
2021/11/18 03:49:39;;;;;;;;;;;13.40;97.30;;;;;;2067371;28;1226;-61
2021/11/18 03:50:58;;;;;;;;;;;13.40;97.40;;;;;;2064917;28;1121;-60
2021/11/18 03:52:17;;;;;;;;;;;13.40;97.30;;;;;;2090017;28;1302;-60
2021/11/18 03:53:37;;;;;;;;;;;13.40;97.30;;;;;;2088960;28;1552;-61
2021/11/18 03:54:57;;;;;;;;;;;13.40;97.30;;;;;;2073255;28;1303;-60
2021/11/18 03:56:19;;;;;;;;;;;13.40;97.30;;;;;;2089319;28;1163;-61
2021/11/18 03:57:39;;;;;;;;;;;13.40;97.30;;;;;;2083367;28;1234;-60
2021/11/18 03:59:02;;;;;;;;;;;13.40;97.30;;;;;;2081205;28;1265;-60
2021/11/18 04:00:24;;;;;;;;;;;13.40;97.40;;;;;;2075594;28;1335;-60
2021/11/18 04:01:45;;;;;;;;;;;13.30;97.30;;;;;;2083834;28;1030;-61
2021/11/18 04:03:05;;;;;;;;;;;13.40;97.40;;;;;;2067893;28;1291;-60
2021/11/18 04:04:40;;;;;;;;;;;13.40;97.40;;;;;;2087353;28;1429;-60
2021/11/18 04:06:02;;;;;;;;;;;13.30;97.40;;;;;;2077670;28;1281;-61
2021/11/18 04:07:22;;;;;;;;;;;13.30;97.40;;;;;;2073638;28;1146;-61
2021/11/18 04:08:45;;;;;;;;;;;13.30;97.50;;;;;;2072502;28;1977;-60
2021/11/18 04:10:09;;;;;;;;;;;13.30;97.50;;;;;;2069307;28;1348;-61
2021/11/18 04:11:28;;;;;;;;;;;13.30;97.60;;;;;;2069934;28;1304;-61
2021/11/18 04:12:52;;;;;;;;;;;13.30;97.70;;;;;;2068547;28;1208;-62
2021/11/18 04:14:11;;;;;;;;;;;13.30;97.80;;;;;;2069107;28;1433;-61
2021/11/18 04:15:30;;;;;;;;;;;13.30;98.10;;;;;;2075693;28;1529;-62
2021/11/18 04:16:51;;;;;;;;;;;13.30;98.30;;;;;;2077737;28;1212;-61
2021/11/18 04:18:12;;;;;;;;;;;13.30;98.30;;;;;;2078972;28;1216;-61
2021/11/18 04:19:32;;;;;;;;;;;13.30;98.50;;;;;;2069651;28;1266;-61
2021/11/18 04:20:52;;;;;;;;;;;13.30;98.60;;;;;;2065634;28;1278;-61
2021/11/18 04:22:11;;;;;;;;;;;13.30;98.60;;;;;;2077730;28;1119;-59
2021/11/18 04:23:32;;;;;;;;;;;13.30;99.30;;;;;;2092806;28;1488;-60
2021/11/18 04:24:51;;;;;;;;;;;13.30;99.90;;;;;;2083053;28;1458;-61
2021/11/18 04:26:10;;;;;;;;;;;13.40;99.90;;;;;;2072861;28;1280;-61
2021/11/18 04:27:32;;;;;;;;;;;13.40;99.90;;;;;;2075617;28;1300;-60
2021/11/18 04:28:51;;;;;;;;;;;13.40;99.90;;;;;;2069275;28;1894;-61
2021/11/18 04:30:11;;;;;;;;;;;13.40;99.90;;;;;;2067175;28;1371;-61
2021/11/18 04:31:34;;;;;;;;;;;13.40;99.60;;;;;;2079326;28;1199;-60
2021/11/18 04:32:53;;;;;;;;;;;13.40;99.50;;;;;;2070964;28;1344;-60
2021/11/18 04:34:13;;;;;;;;;;;13.40;99.30;;;;;;2078769;28;1501;-60
2021/11/18 04:35:32;;;;;;;;;;;13.40;99.30;;;;;;2072912;28;1086;-59
2021/11/18 04:36:52;;;;;;;;;;;13.30;99.50;;;;;;2071884;28;1703;-60
2021/11/18 04:38:11;;;;;;;;;;;13.30;99.70;;;;;;2090473;28;1304;-61
2021/11/18 04:39:31;;;;;;;;;;;13.40;99.60;;;;;;2076616;28;1340;-60
2021/11/18 04:40:50;;;;;;;;;;;13.30;99.80;;;;;;2077392;28;1081;-59
2021/11/18 04:42:11;;;;;;;;;;;13.30;99.80;;;;;;2077339;28;1448;-57
2021/11/18 04:43:38;;;;;;;;;;;13.30;99.90;;;;;;2072136;28;1311;-60
2021/11/18 04:44:57;;;;;;;;;;;13.30;99.80;;;;;;2072429;28;1200;-59
2021/11/18 04:46:17;;;;;;;;;;;13.30;99.90;;;;;;2073736;28;1576;-60
2021/11/18 04:47:36;;;;;;;;;;;13.30;99.90;;;;;;2089567;28;1100;-60
2021/11/18 04:48:57;;;;;;;;;;;13.30;99.90;;;;;;2081326;28;1906;-61
2021/11/18 04:50:16;;;;;;;;;;;13.30;99.90;;;;;;2073619;28;1216;-60
2021/11/18 04:51:36;;;;;;;;;;;13.30;99.90;;;;;;2084669;28;1156;-60
2021/11/18 04:52:56;;;;;;;;;;;13.30;99.90;;;;;;2072531;28;1448;-60
2021/11/18 04:54:15;;;;;;;;;;;13.30;99.90;;;;;;2089551;28;1382;-60
2021/11/18 04:55:35;;;;;;;;;;;13.30;99.90;;;;;;2084363;28;1213;-60
2021/11/18 04:56:54;;;;;;;;;;;13.30;99.90;;;;;;2083725;28;1215;-60
2021/11/18 04:58:14;;;;;;;;;;;13.30;99.90;;;;;;2080674;28;1358;-59
2021/11/18 04:59:35;;;;;;;;;;;13.30;99.90;;;;;;2073846;28;1368;-60
2021/11/18 05:00:55;;;;;;;;;;;13.20;99.90;;;;;;2069818;28;1767;-59
2021/11/18 05:02:16;;;;;;;;;;;13.20;99.90;;;;;;2078497;28;1202;-60
2021/11/18 05:03:36;;;;;;;;;;;13.20;99.90;;;;;;2071631;28;1227;-60
2021/11/18 05:04:55;;;;;;;;;;;13.30;99.90;;;;;;2076485;28;1245;-60
2021/11/18 05:06:15;;;;;;;;;;;13.20;99.90;;;;;;2076331;28;1358;-59
2021/11/18 05:07:34;;;;;;;;;;;13.20;99.90;;;;;;2076141;28;1155;-59
2021/11/18 05:08:57;;;;;;;;;;;13.20;99.90;;;;;;2081232;28;1934;-60
2021/11/18 05:10:16;;;;;;;;;;;13.20;99.90;;;;;;2071748;28;1644;-60
2021/11/18 05:11:36;;;;;;;;;;;13.30;99.90;;;;;;2090848;28;1284;-60
2021/11/18 05:12:55;;;;;;;;;;;13.20;99.90;;;;;;2082586;28;1219;-59
2021/11/18 05:14:18;;;;;;;;;;;13.20;99.90;;;;;;2079665;28;1515;-61
2021/11/18 05:15:39;;;;;;;;;;;13.20;99.90;;;;;;2077774;28;1195;-60
2021/11/18 05:16:59;;;;;;;;;;;13.20;99.80;;;;;;2080003;28;1179;-61
2021/11/18 05:18:18;;;;;;;;;;;13.30;99.90;;;;;;2092273;28;1450;-60
2021/11/18 05:19:37;;;;;;;;;;;13.20;99.90;;;;;;2083787;28;1248;-59
2021/11/18 05:20:57;;;;;;;;;;;13.20;99.80;;;;;;2085313;28;1383;-59
2021/11/18 05:22:17;;;;;;;;;;;13.20;99.80;;;;;;2072440;28;1289;-61
2021/11/18 05:23:38;;;;;;;;;;;13.20;99.80;;;;;;2077227;28;1261;-59
2021/11/18 05:24:59;;;;;;;;;;;13.20;99.80;;;;;;2076945;28;1227;-60
2021/11/18 05:26:19;;;;;;;;;;;13.20;99.70;;;;;;2093821;28;1435;-58
2021/11/18 05:27:41;;;;;;;;;;;13.20;99.90;;;;;;2096749;28;1416;-60
2021/11/18 05:29:01;;;;;;;;;;;13.20;99.80;;;;;;2076329;28;2034;-59
2021/11/18 05:30:23;;;;;;;;;;;13.20;99.70;;;;;;2083060;28;1316;-59
2021/11/18 05:31:43;;;;;;;;;;;13.20;99.70;;;;;;2083048;28;1241;-59
2021/11/18 05:33:20;;;;;;;;;;;13.20;99.70;;;;;;2079595;28;1343;-58
2021/11/18 05:34:40;;;;;;;;;;;13.20;99.70;;;;;;2071263;28;1502;-60
2021/11/18 05:36:04;;;;;;;;;;;13.20;99.70;;;;;;2077485;28;1722;-60
2021/11/18 05:37:23;;;;;;;;;;;13.20;99.70;;;;;;2085211;28;1441;-59
2021/11/18 05:38:42;;;;;;;;;;;13.20;99.70;;;;;;2077251;28;1481;-59
2021/11/18 05:40:04;;;;;;;;;;;13.20;99.60;;;;;;2069085;28;1215;-60
2021/11/18 05:41:23;;;;;;;;;;;13.20;99.60;;;;;;2075985;28;1129;-60
2021/11/18 05:42:43;;;;;;;;;;;13.20;99.60;;;;;;2078315;28;1700;-60
2021/11/18 05:44:04;;;;;;;;;;;13.20;99.60;;;;;;2079325;28;1520;-60
2021/11/18 05:45:25;;;;;;;;;;;13.20;99.60;;;;;;2090268;28;1337;-58
2021/11/18 05:46:56;;;;;;;;;;;13.20;99.50;;;;;;2080583;28;1248;-59
2021/11/18 05:48:16;;;;;;;;;;;13.20;99.60;;;;;;2084485;28;1987;-59
2021/11/18 05:49:37;;;;;;;;;;;13.20;99.60;;;;;;2082425;28;1459;-59
2021/11/18 05:51:08;;;;;;;;;;;13.20;99.60;;;;;;2081761;28;1363;-62
2021/11/18 05:52:28;;;;;;;;;;;13.20;99.60;;;;;;2068186;28;1457;-59
2021/11/18 05:53:48;;;;;;;;;;;13.10;99.60;;;;;;2076372;28;1144;-59
2021/11/18 05:55:07;;;;;;;;;;;13.20;99.60;;;;;;2075749;28;1165;-59
2021/11/18 05:56:26;;;;;;;;;;;13.10;99.50;;;;;;2078516;28;1210;-59
2021/11/18 05:57:46;;;;;;;;;;;13.10;99.50;;;;;;2077053;28;1175;-58
2021/11/18 05:59:05;;;;;;;;;;;13.10;99.60;;;;;;2066951;28;1439;-59
2021/11/18 06:00:26;;;;;;;;;;;13.10;99.60;;;;;;2079395;28;1406;-58
2021/11/18 06:01:46;;;;;;;;;;;13.20;99.60;;;;;;2079714;28;1215;-60
2021/11/18 06:03:06;;;;;;;;;;;13.10;99.50;;;;;;2090532;28;1114;-61
2021/11/18 06:04:27;;;;;;;;;;;13.10;99.60;;;;;;2090331;28;1522;-60
2021/11/18 06:05:55;;;;;;;;;;;13.20;99.60;;;;;;2081109;28;1148;-60
2021/11/18 06:07:15;;;;;;;;;;;13.10;99.90;;;;;;2067750;28;1445;-59
2021/11/18 06:08:35;;;;;;;;;;;13.10;99.60;;;;;;2066442;28;1980;-61
2021/11/18 06:09:59;;;;;;;;;;;13.20;99.80;;;;;;2075174;28;1353;-59
2021/11/18 06:11:19;;;;;;;;;;;13.20;99.90;;;;;;2086770;28;1386;-60
2021/11/18 06:12:38;;;;;;;;;;;13.20;99.90;;;;;;2078570;28;1504;-60
2021/11/18 06:13:59;;;;;;;;;;;13.10;99.90;;;;;;2071061;28;1493;-60
2021/11/18 06:15:20;;;;;;;;;;;13.10;99.90;;;;;;2097492;28;1171;-59
2021/11/18 06:16:41;;;;;;;;;;;13.10;99.90;;;;;;2086254;28;1293;-61
2021/11/18 06:18:00;;;;;;;;;;;13.10;99.90;;;;;;2075811;28;1266;-60
2021/11/18 06:19:19;;;;;;;;;;;13.10;99.90;;;;;;2078535;28;1274;-61
2021/11/18 06:20:39;;;;;;;;;;;13.10;99.90;;;;;;2072568;28;1219;-60
2021/11/18 06:21:58;;;;;;;;;;;13.10;99.90;;;;;;2063630;28;1571;-61
2021/11/18 06:23:24;;;;;;;;;;;13.10;99.90;;;;;;2074003;28;1222;-59
2021/11/18 06:24:43;;;;;;;;;;;13.10;99.90;;;;;;2070703;28;1461;-60
2021/11/18 06:26:02;;;;;;;;;;;13.10;99.90;;;;;;2067502;28;1250;-61
2021/11/18 06:27:22;;;;;;;;;;;13.10;99.90;;;;;;2086542;28;1265;-60
2021/11/18 06:28:41;;;;;;;;;;;13.10;99.90;;;;;;2088647;28;1898;-61
2021/11/18 06:30:01;;;;;;;;;;;13.10;99.90;;;;;;2077192;28;1163;-60
2021/11/18 06:31:20;;;;;;;;;;;13.10;99.90;;;;;;2074676;28;1307;-59
2021/11/18 06:32:40;;;;;;;;;;;13.10;99.90;;;;;;2079284;28;1290;-60
2021/11/18 06:34:03;;;;;;;;;;;13.10;99.90;;;;;;2082694;28;1342;-60
2021/11/18 06:35:22;;;;;;;;;;;13.10;99.90;;;;;;2078971;28;1189;-59
2021/11/18 06:36:43;;;;;;;;;;;13.10;99.90;;;;;;2078400;28;1486;-60
2021/11/18 06:38:02;;;;;;;;;;;13.10;99.90;;;;;;2085737;28;1201;-60
2021/11/18 06:39:22;;;;;;;;;;;13.10;99.90;;;;;;2083355;28;1326;-59
2021/11/18 06:40:43;;;;;;;;;;;13.10;99.90;;;;;;2075775;28;1563;-59
2021/11/18 06:42:03;;;;;;;;;;;13.10;99.90;;;;;;2092902;28;1482;-60
2021/11/18 06:43:22;;;;;;;;;;;13.10;99.90;;;;;;2091891;28;1415;-60
2021/11/18 06:44:45;;;;;;;;;;;13.20;99.90;;;;;;2072131;28;1334;-60
2021/11/18 06:46:05;;;;;;;;;;;13.20;99.90;;;;;;2072897;28;1640;-60
2021/11/18 06:47:24;;;;;;;;;;;13.20;99.90;;;;;;2076610;28;1345;-59
2021/11/18 06:48:46;;;;;;;;;;;13.20;99.90;;;;;;2080477;28;1965;-60
2021/11/18 06:50:07;;;;;;;;;;;13.30;99.90;;;;;;2068965;28;1042;-60
2021/11/18 06:51:27;;;;;;;;;;;13.30;99.90;;;;;;2086258;28;1632;-60
2021/11/18 06:52:46;;;;;;;;;;;13.30;99.90;;;;;;2080465;28;1242;-61
2021/11/18 06:54:06;;;;;;;;;;;13.30;99.90;;;;;;2072738;28;1369;-61
2021/11/18 06:55:26;;;;;;;;;;;13.30;99.90;;;;;;2076660;28;1209;-60
2021/11/18 06:56:45;;;;;;;;;;;13.30;99.90;;;;;;2077523;28;1218;-61
2021/11/18 06:58:05;;;;;;;;;;;13.30;99.90;;;;;;2070165;28;1319;-61
2021/11/18 06:59:24;;;;;;;;;;;13.30;99.90;;;;;;2069741;28;1185;-61
2021/11/18 07:00:44;;;;;;;;;;;13.30;99.90;;;;;;2082613;28;1565;-58
2021/11/18 07:02:03;;;;;;;;;;;13.40;99.90;;;;;;2096183;28;1252;-60
2021/11/18 07:03:22;;;;;;;;;;;13.40;99.90;;;;;;2081976;28;1267;-59
2021/11/18 07:04:44;;;;;;;;;;;13.40;99.90;;;;;;2075230;28;1462;-60
2021/11/18 07:06:03;;;;;;;;;;;13.40;99.90;;;;;;2071142;28;1208;-60
2021/11/18 07:07:23;;;;;;;;;;;13.40;99.90;;;;;;2089244;28;1233;-59
2021/11/18 07:08:42;;;;;;;;;;;13.40;99.90;;;;;;2094410;28;1965;-59
2021/11/18 07:10:02;;;;;;;;;;;13.40;99.90;;;;;;2082255;28;877;-59
2021/11/18 07:11:26;;;;;;;;;;;13.40;99.90;;;;;;2071836;28;1509;-59
2021/11/18 07:12:52;;;;;;;;;;;13.30;99.90;;;;;;2076384;28;1210;-59
2021/11/18 07:14:11;;;;;;;;;;;13.30;99.90;;;;;;2075210;28;1368;-59
2021/11/18 07:15:30;;;;;;;;;;;13.20;99.90;;;;;;2064162;28;1375;-60
2021/11/18 07:16:51;;;;;;;;;;;13.30;99.90;;;;;;2076319;28;1127;-59
2021/11/18 07:18:11;;;;;;;;;;;13.20;99.90;;;;;;2076040;28;1248;-60
2021/11/18 07:19:31;;;;;;;;;;;13.20;99.90;;;;;;2084679;28;1233;-60
2021/11/18 07:20:54;;;;;;;;;;;13.20;99.90;;;;;;2079564;28;1439;-59
2021/11/18 07:22:16;;;;;;;;;;;13.20;99.90;;;;;;2071437;28;1193;-57
2021/11/18 07:23:54;;;;;;;;;;;13.20;99.90;;;;;;2071283;28;1087;-60
2021/11/18 07:25:15;;;;;;;;;;;13.20;99.90;;;;;;2074773;28;1109;-60
2021/11/18 07:26:37;;;;;;;;;;;13.20;99.90;;;;;;2091951;28;1104;-60
2021/11/18 07:27:59;;;;;;;;;;;13.20;99.90;;;;;;2089789;28;1148;-60
2021/11/18 07:29:18;;;;;;;;;;;13.10;99.90;;;;;;2086142;28;1951;-61
2021/11/18 07:30:37;;;;;;;;;;;13.10;99.90;;;;;;2070439;28;1379;-60
2021/11/18 07:31:56;;;;;;;;;;;13.10;99.90;;;;;;2080582;28;1187;-60
2021/11/18 07:33:16;;;;;;;;;;;13.10;99.90;;;;;;2071635;28;1210;-59
2021/11/18 07:34:35;;;;;;;;;;;13.10;99.90;;;;;;2080249;28;1381;-61
2021/11/18 07:36:06;;;;;;;;;;;13.10;99.90;;;;;;2078309;28;1432;-62
2021/11/18 07:37:26;;;;;;;;;;;13.10;99.90;;;;;;2084309;28;1071;-61
2021/11/18 07:38:46;;;;;;;;;;;13.10;99.90;;;;;;2079872;28;1157;-60
2021/11/18 07:40:06;;;;;;;;;;;13.10;99.90;;;;;;2080343;28;1422;-59
2021/11/18 07:41:26;;;;;;;;;;;13.10;99.90;;;;;;2087160;28;1172;-62
2021/11/18 07:43:08;;;;;;;;;;;13.10;99.90;;;;;;2089369;28;1289;-60
2021/11/18 07:44:45;;;;;;;;;;;13.10;99.90;;;;;;2072174;28;1475;-61
2021/11/18 07:46:23;;;;;;;;;;;13.10;99.90;;;;;;2087324;28;1682;-60
2021/11/18 07:47:52;;;;;;;;;;;13.10;99.90;;;;;;2080250;28;1535;-60
2021/11/18 07:49:14;;;;;;;;;;;13.10;99.90;;;;;;2071175;28;1916;-59
2021/11/18 07:50:36;;;;;;;;;;;13.10;99.90;;;;;;2068907;28;1571;-61
2021/11/18 07:51:55;;;;;;;;;;;13.10;99.90;;;;;;2074296;28;1107;-59
2021/11/18 07:53:15;;;;;;;;;;;13.10;99.90;;;;;;2077696;28;1165;-60
2021/11/18 07:54:35;;;;;;;;;;;13.10;99.90;;;;;;2073020;28;1470;-59
2021/11/18 07:55:55;;;;;;;;;;;13.10;99.90;;;;;;2083910;28;1136;-62
2021/11/18 07:57:16;;;;;;;;;;;13.10;99.90;;;;;;2072464;28;1165;-61
2021/11/18 07:58:35;;;;;;;;;;;13.10;99.90;;;;;;2084071;28;1312;-61
2021/11/18 07:59:54;;;;;;;;;;;13.10;99.90;;;;;;2081887;28;1409;-61
2021/11/18 08:01:14;;;;;;;;;;;13.10;99.90;;;;;;2088107;28;1626;-60
2021/11/18 08:02:33;;;;;;;;;;;13.10;99.90;;;;;;2081561;28;1194;-61